메인 페이지
METAR-TAF:

METAR-TAF

공항 :

로타 국제공항

Rota, 마리아나 제도, 미국

위도: 14-11N, 경도: 145-15E, 고도: 185m

현재 날씨관측

예보는 12 시간 15분 전, 07:50시(UTC)에 발표되었습니다.
13kt
온도 28°C
습도 79%
기압 1007 hPa
시정: 11.3km
고도 1500ft 상공 구름 많음

METAR: PGRO 180750Z 08013KT 7SM BKN015 28/24 A2975 RMK LAST

시각: 06:05 (20:05 UTC)

예보

예보는 14 시간 45분 전, 05:20시(UTC)에 발표되었습니다.
예보 대상 시간: 18일 06시부터 19일 06시까지 (UTC)
14kt, 순간 최대 풍속 20kt
시정: 10km
고도 1500ft 상공 구름 보통
고도 3000ft 상공 구름 보통

TAF: PGRO 180520Z 1806/1906 08014G20KT P6SM SCT015 SCT030

4,000개 이상의 공항 관측 자료 및 예보 (METAR 및 TAF 보고).

지도상에서 검색 가능한 기상관측소가 노란 점과 빨간 점으로 표시되어 있습니다.

기상관측소 명을 보려면 표시 위로 마우스를 이동하세요.

날씨 관측과 예보를 보려면 클릭하세요.

지도 변경 : 확대하려면 엑스 표시가 있는 녹색 버튼, 축소하려면 빼기 표시가 있는 녹색 버튼, 다음 페이지의 지도를 보려면 녹색 화살표를 클릭하세요.


METAR-TAF: